createdAt,value
2022-08-09T00:01:55.267Z,100228.63
2022-08-09T00:04:34.103Z,100241.97
2022-08-09T00:07:07.704Z,100220.09
2022-08-09T00:09:39.867Z,100234.53
2022-08-09T00:12:15.526Z,100219.94
2022-08-09T00:14:54.440Z,100230.31
2022-08-09T00:18:10.223Z,100233.97
2022-08-09T00:20:14.053Z,100161.75
2022-08-09T00:22:44.842Z,100242.13
2022-08-09T00:25:23.410Z,100181.69
2022-08-09T00:28:01.106Z,100240.44
2022-08-09T00:30:35.220Z,100245.75
2022-08-09T00:33:03.858Z,100243.94
2022-08-09T00:35:42.716Z,100240.69
2022-08-09T00:38:13.122Z,100231.84
2022-08-09T00:40:52.865Z,100251.53
2022-08-09T00:44:11.527Z,100242.47
2022-08-09T00:46:11.351Z,100242.88
2022-08-09T00:48:56.897Z,100166.47
2022-08-09T00:51:28.298Z,100230.81
2022-08-09T00:54:03.044Z,100231.78
2022-08-09T00:56:31.130Z,100166.47
2022-08-09T00:58:59.386Z,100213.41
2022-08-09T01:01:44.657Z,100244.84
2022-08-09T01:05:14.138Z,100247.44
2022-08-09T01:08:16.234Z,100206.53
2022-08-09T01:11:15.023Z,100256.00
2022-08-09T01:13:59.898Z,100245.72
2022-08-09T01:16:39.549Z,100206.66
2022-08-09T01:19:42.599Z,100258.91
2022-08-09T01:23:01.550Z,100260.91
2022-08-09T01:26:16.443Z,100221.34
2022-08-09T01:28:50.657Z,100255.81
2022-08-09T01:32:30.624Z,100262.97
2022-08-09T01:34:20.273Z,100228.50
2022-08-09T01:36:50.462Z,100250.84
2022-08-09T01:39:23.305Z,100251.53
2022-08-09T01:42:00.550Z,100244.72
2022-08-09T01:44:32.020Z,100250.19
2022-08-09T01:47:02.999Z,100196.44
2022-08-09T01:49:39.251Z,100248.03
2022-08-09T01:52:16.386Z,100252.75
2022-08-09T01:54:54.098Z,100242.69
2022-08-09T01:57:45.830Z,100245.06
2022-08-09T02:00:34.901Z,100212.47
2022-08-09T02:03:04.980Z,100264.00
2022-08-09T02:06:04.182Z,100261.75
2022-08-09T02:08:38.550Z,100262.00
2022-08-09T02:11:17.033Z,100264.34
2022-08-09T02:14:02.172Z,100268.72
2022-08-09T02:16:59.092Z,100257.59
2022-08-09T02:19:38.737Z,100246.06
2022-08-09T02:22:31.559Z,100232.50
2022-08-09T02:25:08.367Z,100240.78
2022-08-09T02:27:57.380Z,100252.03
2022-08-09T02:30:31.984Z,100248.13
2022-08-09T02:33:01.326Z,100244.88
2022-08-09T02:36:03.247Z,100242.81
2022-08-09T02:38:28.930Z,100251.91
2022-08-09T02:41:06.593Z,100253.13
2022-08-09T02:43:42.447Z,100210.03
2022-08-09T02:46:27.927Z,100245.41
2022-08-09T02:49:03.083Z,100259.88
2022-08-09T02:51:40.479Z,100254.69
2022-08-09T02:54:14.353Z,100255.91
2022-08-09T02:56:51.243Z,100266.84
2022-08-09T02:59:26.203Z,100262.72
2022-08-09T03:02:12.316Z,100270.16
2022-08-09T03:04:50.651Z,100263.97
2022-08-09T03:07:20.410Z,100263.66
2022-08-09T03:09:54.474Z,100270.66
2022-08-09T03:12:29.022Z,100276.69
2022-08-09T03:14:58.429Z,100268.59
2022-08-09T03:17:28.390Z,100262.31
2022-08-09T03:20:05.345Z,100276.22
2022-08-09T03:22:41.971Z,100278.63
2022-08-09T03:25:26.955Z,100236.75
2022-08-09T03:28:04.401Z,100265.72
2022-08-09T03:30:40.305Z,100276.44
2022-08-09T03:33:18.690Z,100201.81
2022-08-09T03:36:13.061Z,100282.16
2022-08-09T03:38:43.451Z,100279.50
2022-08-09T03:41:16.430Z,100289.59
2022-08-09T03:43:51.693Z,100281.00
2022-08-09T03:46:36.994Z,100284.09
2022-08-09T03:49:08.174Z,100278.97
2022-08-09T03:51:58.324Z,100219.22
2022-08-09T03:54:34.947Z,100190.41
2022-08-09T03:57:18.777Z,100280.19
2022-08-09T03:59:55.974Z,100268.38
2022-08-09T04:02:31.176Z,100253.41
2022-08-09T04:05:06.677Z,100256.81
2022-08-09T04:07:53.051Z,100256.31
2022-08-09T04:10:29.239Z,100253.81
2022-08-09T04:13:03.982Z,100257.75
2022-08-09T04:16:18.234Z,100259.66
2022-08-09T04:18:21.591Z,100242.94
2022-08-09T04:20:51.253Z,100241.84
2022-08-09T04:23:24.271Z,100227.25
2022-08-09T04:25:55.810Z,100266.00
2022-08-09T04:28:33.688Z,100261.91
2022-08-09T04:31:09.946Z,100266.22
2022-08-09T04:33:47.695Z,100270.94
2022-08-09T04:36:28.759Z,100261.59
2022-08-09T04:39:00.869Z,100262.09
2022-08-09T04:41:33.220Z,100250.59
2022-08-09T04:44:06.289Z,100271.38
2022-08-09T04:46:58.932Z,100259.94
2022-08-09T04:49:53.709Z,100263.88
2022-08-09T04:52:27.638Z,100254.25
2022-08-09T04:55:02.404Z,100264.53
2022-08-09T04:57:59.432Z,100243.94
2022-08-09T05:00:21.099Z,100272.53
2022-08-09T05:02:52.727Z,100254.59
2022-08-09T05:05:32.304Z,100280.91
2022-08-09T05:08:14.048Z,100271.44
2022-08-09T05:10:43.963Z,100269.91
2022-08-09T05:13:14.384Z,100285.00
2022-08-09T05:15:48.270Z,100292.34
2022-08-09T05:18:50.919Z,100265.72
2022-08-09T05:21:23.298Z,100271.44
2022-08-09T05:24:01.193Z,100299.00
2022-08-09T05:26:45.624Z,100292.81
2022-08-09T05:29:24.183Z,100296.97
2022-08-09T05:31:58.391Z,100288.28
2022-08-09T05:34:31.068Z,100290.47
2022-08-09T05:37:11.213Z,100306.50
2022-08-09T05:39:43.761Z,100285.69
2022-08-09T05:42:17.496Z,100261.94
2022-08-09T05:44:54.297Z,100293.59
2022-08-09T05:47:27.322Z,100287.50
2022-08-09T05:50:25.157Z,100287.78
2022-08-09T05:52:53.440Z,100279.34
2022-08-09T05:55:24.102Z,100284.09
2022-08-09T05:57:56.627Z,100250.63
2022-08-09T06:00:32.943Z,100172.91
2022-08-09T06:03:03.711Z,100291.41
2022-08-09T06:05:57.839Z,100289.28
2022-08-09T06:08:24.200Z,100259.44
2022-08-09T06:10:55.854Z,100286.22
2022-08-09T06:13:25.354Z,100285.34
2022-08-09T06:15:56.713Z,100256.00
2022-08-09T06:18:25.897Z,100257.53
2022-08-09T06:20:58.640Z,100292.31
2022-08-09T06:23:58.820Z,100301.09
2022-08-09T06:26:20.560Z,100291.91
2022-08-09T06:29:00.770Z,100296.06
2022-08-09T06:31:39.862Z,100255.75
2022-08-09T06:34:23.587Z,100257.41
2022-08-09T06:36:59.597Z,100289.09
2022-08-09T06:39:49.105Z,100287.75
2022-08-09T06:42:30.320Z,100287.13
2022-08-09T06:45:00.296Z,100282.09
2022-08-09T06:47:39.706Z,100260.88
2022-08-09T06:50:18.972Z,100290.78
2022-08-09T06:52:48.753Z,100295.69
2022-08-09T06:55:22.425Z,100292.28
2022-08-09T06:58:01.819Z,100288.19
2022-08-09T07:00:49.342Z,100278.66
2022-08-09T07:03:27.988Z,100270.28
2022-08-09T07:06:04.114Z,100299.97
2022-08-09T07:08:37.385Z,100311.56
2022-08-09T07:11:12.640Z,100308.22
2022-08-09T07:14:04.145Z,100299.88
2022-08-09T07:16:41.121Z,100272.88
2022-08-09T07:19:15.070Z,100298.34
2022-08-09T07:21:50.108Z,100305.75
2022-08-09T07:24:32.143Z,100289.97
2022-08-09T07:27:27.128Z,100314.38
2022-08-09T07:30:02.283Z,100275.72
2022-08-09T07:32:32.303Z,100260.09
2022-08-09T07:35:10.569Z,100309.56
2022-08-09T07:37:44.433Z,100308.16
2022-08-09T07:40:18.809Z,100311.53
2022-08-09T07:43:00.258Z,100308.44
2022-08-09T07:45:40.416Z,100309.66
2022-08-09T07:48:28.342Z,100307.28
2022-08-09T07:51:10.074Z,100299.28
2022-08-09T07:54:04.916Z,100288.88
2022-08-09T07:56:39.001Z,100312.50
2022-08-09T07:59:34.063Z,100304.53
2022-08-09T08:02:16.648Z,100310.56
2022-08-09T08:04:49.338Z,100307.25
2022-08-09T08:08:45.159Z,100297.28
2022-08-09T08:10:11.451Z,100317.34
2022-08-09T08:12:45.138Z,100247.03
2022-08-09T08:15:23.273Z,100291.81
2022-08-09T08:17:58.691Z,100309.28
2022-08-09T08:20:32.355Z,100322.06
2022-08-09T08:23:16.294Z,100278.69
2022-08-09T08:25:48.528Z,100317.59
2022-08-09T08:28:35.953Z,100307.84
2022-08-09T08:31:10.621Z,100306.03
2022-08-09T08:33:52.630Z,100322.53
2022-08-09T08:36:28.790Z,100321.53
2022-08-09T08:38:58.360Z,100278.34
2022-08-09T08:41:30.812Z,100305.19
2022-08-09T08:44:16.774Z,100273.97
2022-08-09T08:46:59.974Z,100311.53
2022-08-09T08:49:47.210Z,100291.16
2022-08-09T08:52:53.374Z,100280.84
2022-08-09T08:55:10.607Z,100250.13
2022-08-09T08:57:39.018Z,100310.72
2022-08-09T09:00:20.791Z,100312.72
2022-08-09T09:03:08.250Z,100296.19
2022-08-09T09:06:00.347Z,100290.78
2022-08-09T09:08:40.336Z,100310.59
2022-08-09T09:11:13.877Z,100301.63
2022-08-09T09:13:57.063Z,100260.25
2022-08-09T09:16:34.122Z,100271.22
2022-08-09T09:19:37.389Z,100313.28
2022-08-09T09:22:05.522Z,100309.78
2022-08-09T09:24:43.276Z,100306.75
2022-08-09T09:28:03.910Z,100268.22
2022-08-09T09:30:32.901Z,100299.56
2022-08-09T09:33:15.366Z,100296.94
2022-08-09T09:36:01.703Z,100304.66
2022-08-09T09:38:46.644Z,100288.78
2022-08-09T09:41:32.942Z,100296.03
2022-08-09T09:44:12.186Z,100299.69
2022-08-09T09:46:51.757Z,100301.47
2022-08-09T09:50:06.789Z,100258.72
2022-08-09T09:52:33.632Z,100284.34
2022-08-09T09:55:16.027Z,100257.44
2022-08-09T09:58:12.506Z,100289.22
2022-08-09T10:00:59.439Z,100290.81
2022-08-09T10:03:57.801Z,100281.78
2022-08-09T10:06:42.868Z,100285.06
2022-08-09T10:09:22.504Z,100250.63
2022-08-09T10:12:14.666Z,100279.25
2022-08-09T10:14:51.957Z,100255.06
2022-08-09T10:17:54.920Z,100284.00
2022-08-09T10:20:26.962Z,100279.69
2022-08-09T10:23:21.078Z,100239.34
2022-08-09T10:26:07.260Z,100240.03
2022-08-09T10:28:48.654Z,100267.84
2022-08-09T10:34:33.073Z,100269.06
2022-08-09T10:37:00.488Z,100232.63
2022-08-09T10:39:30.171Z,100248.94
2022-08-09T10:42:10.016Z,100263.34
2022-08-09T10:44:39.972Z,100271.59
2022-08-09T10:48:26.033Z,100234.84
2022-08-09T10:51:15.586Z,100273.78
2022-08-09T10:54:13.970Z,100281.34
2022-08-09T10:56:43.411Z,100271.94
2022-08-09T10:59:30.952Z,100243.88
2022-08-09T11:03:15.571Z,100222.28
2022-08-09T11:05:25.312Z,100235.50
2022-08-09T11:08:18.686Z,100258.69
2022-08-09T11:11:00.751Z,100236.09
2022-08-09T11:13:50.174Z,100223.94
2022-08-09T11:16:39.294Z,100249.59
2022-08-09T11:19:10.946Z,100232.13
2022-08-09T11:22:05.239Z,100242.16
2022-08-09T11:25:19.039Z,100237.81
2022-08-09T11:28:08.182Z,100235.72
2022-08-09T11:30:48.009Z,100263.59
2022-08-09T11:33:19.867Z,100270.09
2022-08-09T11:35:59.760Z,100205.13
2022-08-09T11:38:34.154Z,100253.16
2022-08-09T11:41:38.549Z,100196.22
2022-08-09T11:44:09.577Z,100211.31
2022-08-09T11:47:00.754Z,100208.66
2022-08-09T11:50:55.584Z,100204.34
2022-08-09T11:53:28.248Z,100245.81
2022-08-09T11:56:02.825Z,100248.84
2022-08-09T11:58:33.699Z,100244.84
2022-08-09T12:01:15.729Z,100249.28
2022-08-09T12:04:06.626Z,100247.31
2022-08-09T12:06:39.620Z,100225.41
2022-08-09T12:09:28.153Z,100196.94
2022-08-09T12:12:12.290Z,100199.94
2022-08-09T12:15:04.002Z,100236.69
2022-08-09T12:17:43.689Z,100225.09
2022-08-09T12:20:25.728Z,100230.25
2022-08-09T12:23:01.429Z,100221.06
2022-08-09T12:25:37.447Z,100203.09
2022-08-09T12:29:13.271Z,100233.13
2022-08-09T12:31:30.843Z,100233.69
2022-08-09T12:34:05.499Z,100209.41
2022-08-09T12:36:36.238Z,100240.41
2022-08-09T12:39:13.588Z,100188.88
2022-08-09T12:41:42.212Z,100186.34
2022-08-09T12:44:13.281Z,100231.47
2022-08-09T12:46:48.655Z,100194.53
2022-08-09T12:49:18.653Z,100218.25
2022-08-09T12:52:02.416Z,100224.56
2022-08-09T12:56:10.631Z,100223.81
2022-08-09T12:57:47.224Z,100217.72
2022-08-09T13:00:25.124Z,100222.69
2022-08-09T13:03:00.633Z,100193.47
2022-08-09T13:06:14.746Z,100178.09
2022-08-09T13:08:39.821Z,100221.03
2022-08-09T13:11:22.621Z,100207.38
2022-08-09T13:14:41.025Z,100180.44
2022-08-09T13:16:50.286Z,100216.34
2022-08-09T13:20:08.621Z,100221.75
2022-08-09T13:22:37.551Z,100197.88
2022-08-09T13:25:15.110Z,100183.34
2022-08-09T13:27:48.814Z,100214.13
2022-08-09T13:30:50.004Z,100218.06
2022-08-09T13:33:24.385Z,100213.97
2022-08-09T13:36:38.602Z,100172.63
2022-08-09T13:38:54.938Z,100216.47
2022-08-09T13:41:58.539Z,100205.47
2022-08-09T13:44:17.102Z,100221.63
2022-08-09T13:47:29.233Z,100225.09
2022-08-09T13:49:39.933Z,100197.63
2022-08-09T13:52:25.052Z,100206.41
2022-08-09T13:54:59.008Z,100175.00
2022-08-09T13:57:36.248Z,100220.75
2022-08-09T14:00:15.770Z,100218.66
2022-08-09T14:03:03.189Z,100216.31
2022-08-09T14:05:59.585Z,100221.59
2022-08-09T14:08:24.056Z,100222.31
2022-08-09T14:10:55.787Z,100217.53
2022-08-09T14:14:16.011Z,100225.97
2022-08-09T14:16:17.283Z,100215.38
2022-08-09T14:18:51.864Z,100203.78
2022-08-09T14:21:23.459Z,100209.53
2022-08-09T14:23:57.054Z,100174.63
2022-08-09T14:26:33.770Z,100223.09
2022-08-09T14:29:08.196Z,100213.81
2022-08-09T14:31:54.754Z,100209.78
2022-08-09T14:34:32.392Z,100182.47
2022-08-09T14:37:06.741Z,100170.94
2022-08-09T14:39:47.869Z,100210.84
2022-08-09T14:42:28.886Z,100221.19
2022-08-09T14:46:40.361Z,100212.28
2022-08-09T14:47:59.124Z,100212.63
2022-08-09T14:50:31.285Z,100209.84
2022-08-09T14:53:13.899Z,100227.19
2022-08-09T14:55:50.217Z,100232.63
2022-08-09T14:58:19.276Z,100223.47
2022-08-09T15:00:48.432Z,100232.63
2022-08-09T15:03:20.925Z,100227.75
2022-08-09T15:05:52.613Z,100216.69
2022-08-09T15:08:25.035Z,100213.00
2022-08-09T15:11:00.817Z,100193.25
2022-08-09T15:13:48.479Z,100216.44
2022-08-09T15:16:18.781Z,100203.97
2022-08-09T15:18:48.980Z,100217.50
2022-08-09T15:21:56.349Z,100220.13
2022-08-09T15:24:12.603Z,100209.88
2022-08-09T15:26:45.384Z,100211.09
2022-08-09T15:30:56.212Z,100220.25
2022-08-09T15:32:04.686Z,100174.63
2022-08-09T15:34:35.352Z,100214.06
2022-08-09T15:37:37.702Z,100201.09
2022-08-09T15:40:19.844Z,100214.56
2022-08-09T15:42:51.045Z,100218.13
2022-08-09T15:45:29.320Z,100142.97
2022-08-09T15:48:06.666Z,100221.47
2022-08-09T15:50:46.834Z,100211.19
2022-08-09T15:53:17.947Z,100178.53
2022-08-09T15:56:29.116Z,100194.13
2022-08-09T15:58:55.871Z,100227.91
2022-08-09T16:01:24.306Z,100229.97
2022-08-09T16:03:52.433Z,100223.13
2022-08-09T16:06:32.580Z,100201.34
2022-08-09T16:09:05.521Z,100216.78
2022-08-09T16:11:34.176Z,100193.03
2022-08-09T16:14:09.032Z,100223.63
2022-08-09T16:16:45.820Z,100193.78
2022-08-09T16:19:16.783Z,100222.38
2022-08-09T16:21:51.943Z,100180.88
2022-08-09T16:24:33.204Z,100211.31
2022-08-09T16:27:06.492Z,100161.75
2022-08-09T16:29:49.642Z,100227.66
2022-08-09T16:32:34.130Z,100193.25
2022-08-09T16:35:08.312Z,100174.75
2022-08-09T16:37:54.756Z,100184.75
2022-08-09T16:40:40.427Z,100229.09
2022-08-09T16:43:09.686Z,100228.19
2022-08-09T16:45:43.848Z,100192.69
2022-08-09T16:48:43.056Z,100190.63
2022-08-09T16:51:08.486Z,100227.53
2022-08-09T16:54:26.296Z,100226.88
2022-08-09T16:56:50.214Z,100221.16
2022-08-09T16:59:18.299Z,100227.28
2022-08-09T17:01:51.026Z,100220.56
2022-08-09T17:04:25.978Z,100226.44
2022-08-09T17:08:40.684Z,100237.13
2022-08-09T17:09:47.476Z,100215.78
2022-08-09T17:12:16.380Z,100197.63
2022-08-09T17:14:49.059Z,100236.63
2022-08-09T17:17:26.847Z,100236.28
2022-08-09T17:20:30.297Z,100229.84
2022-08-09T17:22:52.308Z,100197.13
2022-08-09T17:25:23.692Z,100230.28
2022-08-09T17:27:55.137Z,100207.47
2022-08-09T17:30:31.011Z,100224.59
2022-08-09T17:33:05.644Z,100226.53
2022-08-09T17:35:51.386Z,100177.34
2022-08-09T17:38:32.230Z,100230.00
2022-08-09T17:41:03.223Z,100237.59
2022-08-09T17:43:38.882Z,100236.78
2022-08-09T17:46:09.832Z,100241.53
2022-08-09T17:48:52.157Z,100245.84
2022-08-09T17:51:22.237Z,100241.25
2022-08-09T17:53:55.794Z,100200.38
2022-08-09T17:56:29.226Z,100247.72
2022-08-09T17:59:11.363Z,100207.31
2022-08-09T18:02:07.895Z,100239.22
2022-08-09T18:04:29.965Z,100247.81
2022-08-09T18:06:59.401Z,100255.66
2022-08-09T18:09:40.107Z,100244.81
2022-08-09T18:12:20.066Z,100229.22
2022-08-09T18:14:54.956Z,100261.94
2022-08-09T18:18:02.984Z,100268.75
2022-08-09T18:20:57.268Z,100274.78
2022-08-09T18:23:07.169Z,100274.31
2022-08-09T18:25:52.743Z,100279.34
2022-08-09T18:30:39.093Z,100250.06
2022-08-09T18:31:24.959Z,100294.81
2022-08-09T18:34:05.131Z,100298.53
2022-08-09T18:36:34.808Z,100261.22
2022-08-09T18:39:15.927Z,100297.75
2022-08-09T18:41:53.327Z,100304.31
2022-08-09T18:44:25.466Z,100256.91
2022-08-09T18:47:07.365Z,100303.81
2022-08-09T18:49:41.733Z,100289.38
2022-08-09T18:52:28.412Z,100305.97
2022-08-09T18:55:05.029Z,100309.28
2022-08-09T18:57:42.630Z,100306.91
2022-08-09T19:00:20.413Z,100274.91
2022-08-09T19:02:50.976Z,100317.16
2022-08-09T19:05:48.738Z,100320.31
2022-08-09T19:08:14.203Z,100326.31
2022-08-09T19:10:48.334Z,100311.66
2022-08-09T19:13:23.587Z,100316.13
2022-08-09T19:16:05.263Z,100322.56
2022-08-09T19:18:38.527Z,100290.69
2022-08-09T19:21:10.661Z,100315.66
2022-08-09T19:24:37.355Z,100309.75
2022-08-09T19:26:34.840Z,100318.91
2022-08-09T19:29:15.766Z,100289.38
2022-08-09T19:31:51.508Z,100329.84
2022-08-09T19:34:22.698Z,100314.50
2022-08-09T19:36:54.091Z,100322.00
2022-08-09T19:39:43.413Z,100319.63
2022-08-09T19:42:15.322Z,100264.03
2022-08-09T19:44:51.249Z,100286.19
2022-08-09T19:47:23.590Z,100332.94
2022-08-09T19:50:08.754Z,100329.56
2022-08-09T19:52:51.997Z,100315.41
2022-08-09T19:55:25.571Z,100329.00
2022-08-09T19:57:59.255Z,100283.78
2022-08-09T20:00:27.747Z,100326.63
2022-08-09T20:04:12.455Z,100331.19
2022-08-09T20:05:46.951Z,100288.59
2022-08-09T20:08:33.525Z,100315.81
2022-08-09T20:11:04.993Z,100280.44
2022-08-09T20:13:36.819Z,100317.44
2022-08-09T20:16:34.580Z,100302.72
2022-08-09T20:19:42.757Z,100325.06
2022-08-09T20:21:56.391Z,100266.69
2022-08-09T20:24:29.500Z,100286.19
2022-08-09T20:27:05.737Z,100327.69
2022-08-09T20:29:39.366Z,100315.09
2022-08-09T20:32:28.967Z,100287.75
2022-08-09T20:34:59.897Z,100301.72
2022-08-09T20:38:18.462Z,100326.13
2022-08-09T20:40:27.511Z,100318.72
2022-08-09T20:43:19.098Z,100312.38
2022-08-09T20:46:01.201Z,100276.13
2022-08-09T20:48:38.712Z,100321.91
2022-08-09T20:51:07.590Z,100204.16
2022-08-09T20:53:48.720Z,100319.28
2022-08-09T20:56:20.707Z,100318.06
2022-08-09T20:58:54.718Z,100316.41
2022-08-09T21:01:34.444Z,100318.78
2022-08-09T21:05:54.548Z,100271.59
2022-08-09T21:07:11.498Z,100319.47
2022-08-09T21:09:45.683Z,100316.13
2022-08-09T21:15:23.347Z,100217.44
2022-08-09T21:18:20.799Z,100273.31
2022-08-09T21:20:53.864Z,100306.59
2022-08-09T21:23:26.402Z,100317.31
2022-08-09T21:26:12.567Z,100318.81
2022-08-09T21:28:55.374Z,100321.03
2022-08-09T21:31:24.731Z,100320.19
2022-08-09T21:34:13.114Z,100323.69
2022-08-09T21:36:55.406Z,100324.34
2022-08-09T21:39:27.711Z,100331.22
2022-08-09T21:42:04.353Z,100319.16
2022-08-09T21:44:35.996Z,100319.78
2022-08-09T21:47:09.372Z,100284.75
2022-08-09T21:49:43.144Z,100306.91
2022-08-09T21:52:20.951Z,100322.47
2022-08-09T21:54:59.582Z,100325.03
2022-08-09T21:57:59.458Z,100307.41
2022-08-09T22:00:36.073Z,100275.38
2022-08-09T22:03:19.382Z,100317.50
2022-08-09T22:05:55.215Z,100321.06
2022-08-09T22:08:26.199Z,100311.00
2022-08-09T22:11:49.173Z,100279.91
2022-08-09T22:13:44.807Z,100267.19
2022-08-09T22:16:12.835Z,100310.19
2022-08-09T22:18:54.356Z,100308.69
2022-08-09T22:21:50.322Z,100265.66
2022-08-09T22:24:21.111Z,100302.50
2022-08-09T22:26:54.469Z,100298.41
2022-08-09T22:29:28.420Z,100305.19
2022-08-09T22:32:29.416Z,100297.97
2022-08-09T22:35:06.042Z,100251.47
2022-08-09T22:37:40.239Z,100286.41
2022-08-09T22:40:19.990Z,100267.50
2022-08-09T22:42:48.758Z,100292.19
2022-08-09T22:48:15.225Z,100292.38
2022-08-09T22:48:19.367Z,100290.03
2022-08-09T22:50:53.830Z,100266.47
2022-08-09T22:53:22.094Z,100259.41
2022-08-09T22:56:29.998Z,100304.78
2022-08-09T22:58:39.306Z,100300.22
2022-08-09T23:01:08.481Z,100259.06
2022-08-09T23:04:05.666Z,100301.72
2022-08-09T23:06:35.073Z,100300.88
2022-08-09T23:09:07.517Z,100295.00
2022-08-09T23:11:35.731Z,100285.22
2022-08-09T23:14:09.888Z,100238.66
2022-08-09T23:16:45.892Z,100235.16
2022-08-09T23:19:13.998Z,100237.81
2022-08-09T23:21:42.117Z,100282.84
2022-08-09T23:24:11.210Z,100251.38
2022-08-09T23:26:40.563Z,100282.13
2022-08-09T23:29:13.881Z,100288.63
2022-08-09T23:31:42.532Z,100259.66
2022-08-09T23:34:10.829Z,100276.31
2022-08-09T23:36:39.128Z,100247.00
2022-08-09T23:39:08.322Z,100280.78
2022-08-09T23:41:36.427Z,100235.34
2022-08-09T23:44:05.270Z,100292.00
2022-08-09T23:46:33.894Z,100298.69
2022-08-09T23:49:02.870Z,100248.00
2022-08-09T23:51:31.392Z,100293.97
2022-08-09T23:54:02.395Z,100247.19
2022-08-09T23:56:52.145Z,100292.84
2022-08-09T23:59:24.447Z,100294.88
